createdAt,value
2024-01-27T00:02:02.375Z,7.10
2024-01-27T00:04:31.900Z,5.47
2024-01-27T00:07:01.185Z,8.57
2024-01-27T00:09:30.361Z,7.78
2024-01-27T00:12:01.037Z,9.15
2024-01-27T00:14:30.098Z,13.32
2024-01-27T00:16:59.569Z,6.70
2024-01-27T00:19:28.907Z,8.48
2024-01-27T00:21:58.333Z,9.30
2024-01-27T00:24:28.067Z,5.37
2024-01-27T00:26:57.085Z,2.92
2024-01-27T00:29:30.582Z,7.47
2024-01-27T00:31:59.967Z,4.68
2024-01-27T00:34:29.148Z,2.00
2024-01-27T00:36:58.549Z,2.92
2024-01-27T00:39:28.019Z,2.87
2024-01-27T00:42:01.042Z,4.15
2024-01-27T00:44:31.559Z,3.80
2024-01-27T00:47:00.921Z,4.87
2024-01-27T00:49:30.897Z,3.28
2024-01-27T00:52:08.751Z,2.40
2024-01-27T00:54:38.215Z,2.60
2024-01-27T00:57:08.639Z,4.65
2024-01-27T00:59:40.673Z,2.92
2024-01-27T01:02:09.831Z,3.67
2024-01-27T01:04:39.183Z,3.90
2024-01-27T01:07:09.410Z,2.85
2024-01-27T01:09:38.829Z,4.82
2024-01-27T01:12:10.882Z,3.92
2024-01-27T01:14:45.619Z,2.50
2024-01-27T01:17:14.880Z,4.15
2024-01-27T01:19:44.272Z,8.63
2024-01-27T01:22:16.104Z,6.07
2024-01-27T01:24:46.171Z,2.50
2024-01-27T01:27:20.258Z,4.50
2024-01-27T01:29:51.240Z,3.10
2024-01-27T01:32:20.515Z,4.93
2024-01-27T01:34:50.683Z,4.80
2024-01-27T01:37:20.167Z,5.47
2024-01-27T01:39:49.712Z,2.47
2024-01-27T01:42:18.691Z,2.08
2024-01-27T01:44:47.756Z,2.47
2024-01-27T01:47:23.809Z,2.53
2024-01-27T01:49:53.248Z,3.22
2024-01-27T01:52:23.961Z,6.22
2024-01-27T01:54:53.470Z,4.72
2024-01-27T01:57:22.910Z,2.85
2024-01-27T01:59:53.115Z,5.80
2024-01-27T02:02:27.501Z,2.35
2024-01-27T02:04:56.879Z,2.33
2024-01-27T02:07:26.198Z,2.25
2024-01-27T02:09:55.384Z,2.25
2024-01-27T02:12:24.674Z,2.83
2024-01-27T02:14:54.905Z,2.08
2024-01-27T02:17:32.564Z,2.85
2024-01-27T02:20:02.065Z,4.12
2024-01-27T02:22:36.528Z,2.30
2024-01-27T02:25:07.936Z,3.25
2024-01-27T02:27:37.374Z,2.83
2024-01-27T02:30:10.953Z,1.75
2024-01-27T02:32:41.713Z,1.62
2024-01-27T02:35:16.794Z,1.55
2024-01-27T02:37:46.336Z,1.80
2024-01-27T02:40:16.732Z,6.62
2024-01-27T02:42:46.188Z,2.35
2024-01-27T02:45:18.989Z,5.05
2024-01-27T02:47:48.528Z,1.77
2024-01-27T02:50:17.556Z,1.70
2024-01-27T02:52:46.354Z,2.25
2024-01-27T02:55:24.750Z,2.53
2024-01-27T02:57:57.611Z,1.95
2024-01-27T03:00:26.966Z,2.78
2024-01-27T03:02:58.447Z,5.22
2024-01-27T03:05:28.124Z,3.22
2024-01-27T03:07:57.523Z,1.95
2024-01-27T03:10:28.775Z,1.80
2024-01-27T03:12:58.264Z,6.03
2024-01-27T03:15:29.600Z,3.67
2024-01-27T03:17:59.334Z,2.45
2024-01-27T03:20:29.129Z,4.35
2024-01-27T03:22:58.555Z,3.67
2024-01-27T03:25:28.828Z,4.75
2024-01-27T03:27:58.080Z,7.03
2024-01-27T03:30:27.302Z,1.60
2024-01-27T03:32:56.547Z,3.33
2024-01-27T03:35:25.700Z,3.53
2024-01-27T03:37:55.231Z,2.60
2024-01-27T03:40:24.366Z,2.45
2024-01-27T03:42:54.749Z,2.28
2024-01-27T03:45:24.182Z,1.70
2024-01-27T03:47:54.405Z,4.45
2024-01-27T03:50:24.356Z,2.70
2024-01-27T03:52:53.137Z,5.65
2024-01-27T03:55:33.384Z,2.40
2024-01-27T03:58:04.425Z,2.80
2024-01-27T04:00:34.715Z,1.60
2024-01-27T04:03:04.622Z,2.92
2024-01-27T04:05:33.663Z,2.40
2024-01-27T04:08:03.686Z,2.15
2024-01-27T04:10:33.442Z,2.15
2024-01-27T04:13:04.732Z,2.87
2024-01-27T04:15:38.634Z,1.87
2024-01-27T04:18:09.688Z,3.35
2024-01-27T04:20:39.393Z,4.60
2024-01-27T04:23:08.669Z,3.60
2024-01-27T04:25:37.702Z,3.25
2024-01-27T04:28:10.536Z,5.70
2024-01-27T04:30:39.561Z,4.87
2024-01-27T04:33:09.545Z,5.93
2024-01-27T04:35:39.114Z,2.45
2024-01-27T04:38:10.624Z,3.33
2024-01-27T04:40:39.748Z,2.97
2024-01-27T04:43:10.773Z,3.60
2024-01-27T04:45:42.595Z,3.22
2024-01-27T04:48:15.080Z,5.00
2024-01-27T04:50:44.394Z,6.05
2024-01-27T04:53:13.874Z,5.00
2024-01-27T04:55:45.713Z,5.18
2024-01-27T04:58:19.854Z,2.25
2024-01-27T05:00:48.808Z,2.87
2024-01-27T05:03:18.570Z,4.18
2024-01-27T05:05:47.923Z,5.80
2024-01-27T05:08:17.182Z,3.08
2024-01-27T05:10:46.581Z,6.05
2024-01-27T05:13:15.989Z,7.12
2024-01-27T05:15:47.750Z,6.18
2024-01-27T05:18:17.312Z,7.00
2024-01-27T05:20:46.552Z,6.90
2024-01-27T05:23:20.876Z,4.47
2024-01-27T05:25:52.050Z,1.83
2024-01-27T05:28:23.020Z,3.08
2024-01-27T05:30:53.883Z,7.28
2024-01-27T05:33:26.079Z,5.72
2024-01-27T05:35:55.396Z,10.85
2024-01-27T05:38:25.133Z,7.80
2024-01-27T05:40:54.338Z,8.27
2024-01-27T05:43:24.813Z,4.32
2024-01-27T05:45:55.632Z,5.80
2024-01-27T05:48:28.075Z,4.65
2024-01-27T05:51:01.048Z,4.00
2024-01-27T05:53:30.471Z,6.78
2024-01-27T05:56:00.655Z,6.18
2024-01-27T05:58:31.046Z,6.35
2024-01-27T06:01:02.451Z,6.87
2024-01-27T06:03:35.623Z,9.63
2024-01-27T06:06:04.969Z,12.73
2024-01-27T06:08:34.232Z,4.62
2024-01-27T06:11:07.444Z,18.12
2024-01-27T06:13:39.248Z,19.12
2024-01-27T06:16:11.097Z,14.98
2024-01-27T06:18:43.724Z,18.17
2024-01-27T06:21:13.068Z,12.85
2024-01-27T06:23:42.553Z,6.68
2024-01-27T06:26:12.205Z,7.40
2024-01-27T06:28:41.618Z,4.15
2024-01-27T06:31:12.120Z,8.02
2024-01-27T06:33:42.097Z,8.70
2024-01-27T06:36:11.875Z,3.62
2024-01-27T06:38:41.563Z,7.87
2024-01-27T06:41:12.056Z,7.80
2024-01-27T06:43:41.192Z,6.07
2024-01-27T06:46:11.640Z,2.20
2024-01-27T06:48:42.988Z,5.07
2024-01-27T06:51:12.323Z,6.57
2024-01-27T06:53:41.688Z,9.88
2024-01-27T06:56:10.568Z,3.65
2024-01-27T06:58:39.857Z,4.70
2024-01-27T07:01:09.928Z,5.75
2024-01-27T07:03:46.066Z,2.62
2024-01-27T07:06:15.112Z,6.57
2024-01-27T07:08:44.398Z,4.05
2024-01-27T07:11:13.452Z,5.97
2024-01-27T07:13:43.967Z,7.35
2024-01-27T07:16:13.494Z,6.80
2024-01-27T07:18:47.154Z,13.02
2024-01-27T07:21:18.614Z,8.55
2024-01-27T07:23:55.167Z,6.35
2024-01-27T07:26:36.578Z,4.30
2024-01-27T07:29:06.720Z,7.32
2024-01-27T07:31:36.969Z,4.80
2024-01-27T07:34:08.876Z,3.55
2024-01-27T07:36:38.264Z,11.63
2024-01-27T07:39:08.350Z,3.87
2024-01-27T07:41:38.191Z,5.68
2024-01-27T07:44:11.562Z,4.37
2024-01-27T07:46:41.561Z,5.80
2024-01-27T07:49:14.101Z,3.35
2024-01-27T07:54:14.277Z,4.20
2024-01-27T07:56:44.244Z,4.05
2024-01-27T07:59:16.640Z,2.03
2024-01-27T08:01:45.859Z,4.25
2024-01-27T08:04:20.464Z,8.52
2024-01-27T08:06:52.543Z,4.70
2024-01-27T08:09:22.272Z,3.17
2024-01-27T08:11:54.161Z,5.47
2024-01-27T08:14:25.210Z,4.82
2024-01-27T08:16:57.200Z,5.30
2024-01-27T08:19:29.610Z,5.60
2024-01-27T08:21:58.996Z,4.45
2024-01-27T08:24:29.095Z,2.75
2024-01-27T08:26:58.280Z,4.45
2024-01-27T08:29:27.302Z,1.83
2024-01-27T08:31:56.836Z,3.62
2024-01-27T08:34:26.173Z,7.30
2024-01-27T08:37:03.257Z,3.37
2024-01-27T08:39:32.021Z,3.65
2024-01-27T08:42:01.194Z,4.40
2024-01-27T08:44:30.037Z,5.50
2024-01-27T08:47:01.950Z,2.55
2024-01-27T08:49:31.956Z,2.28
2024-01-27T08:52:02.626Z,6.95
2024-01-27T08:54:31.945Z,9.13
2024-01-27T08:57:01.464Z,3.70
2024-01-27T08:59:30.636Z,2.78
2024-01-27T09:01:59.653Z,1.58
2024-01-27T09:04:31.495Z,6.45
2024-01-27T09:07:02.005Z,4.05
2024-01-27T09:09:32.291Z,6.57
2024-01-27T09:12:01.818Z,4.15
2024-01-27T09:14:30.951Z,6.45
2024-01-27T09:17:00.210Z,8.60
2024-01-27T09:19:33.786Z,6.43
2024-01-27T09:22:05.445Z,13.25
2024-01-27T09:24:37.952Z,7.70
2024-01-27T09:27:08.296Z,5.85
2024-01-27T09:29:38.178Z,6.80
2024-01-27T09:32:08.425Z,7.40
2024-01-27T09:34:41.202Z,5.28
2024-01-27T09:37:14.828Z,8.38
2024-01-27T09:39:44.117Z,6.87
2024-01-27T09:42:16.123Z,4.72
2024-01-27T09:44:46.842Z,5.65
2024-01-27T09:47:16.936Z,7.12
2024-01-27T09:49:47.068Z,7.10
2024-01-27T09:52:19.306Z,7.70
2024-01-27T09:54:48.230Z,4.47
2024-01-27T09:57:20.022Z,5.50
2024-01-27T09:59:51.756Z,5.25
2024-01-27T10:02:21.305Z,7.03
2024-01-27T10:04:50.816Z,7.55
2024-01-27T10:07:22.287Z,8.38
2024-01-27T10:09:51.750Z,3.80
2024-01-27T10:12:24.328Z,10.20
2024-01-27T10:14:54.354Z,4.32
2024-01-27T10:17:24.504Z,5.40
2024-01-27T10:20:02.603Z,5.53
2024-01-27T10:22:41.174Z,6.55
2024-01-27T10:27:47.027Z,5.30
2024-01-27T10:30:19.389Z,5.93
2024-01-27T10:32:57.937Z,4.32
2024-01-27T10:35:27.728Z,5.50
2024-01-27T10:37:59.761Z,4.45
2024-01-27T10:40:30.474Z,5.05
2024-01-27T10:43:04.849Z,11.25
2024-01-27T10:45:38.566Z,6.53
2024-01-27T10:48:11.034Z,7.00
2024-01-27T10:50:44.500Z,7.10
2024-01-27T10:53:25.502Z,9.63
2024-01-27T10:55:56.672Z,7.97
2024-01-27T10:58:27.188Z,4.72
2024-01-27T11:00:58.719Z,8.52
2024-01-27T11:03:30.367Z,6.00
2024-01-27T11:06:01.261Z,7.05
2024-01-27T11:08:39.484Z,4.82
2024-01-27T11:11:10.400Z,7.22
2024-01-27T11:16:18.612Z,5.25
2024-01-27T11:18:50.452Z,6.57
2024-01-27T11:21:22.049Z,4.40
2024-01-27T11:23:53.143Z,6.15
2024-01-27T11:26:23.992Z,8.65
2024-01-27T11:28:53.144Z,4.00
2024-01-27T11:31:22.580Z,6.68
2024-01-27T11:33:54.563Z,2.80
2024-01-27T11:38:57.570Z,10.65
2024-01-27T11:41:28.461Z,3.35
2024-01-27T11:44:00.728Z,3.90
2024-01-27T11:46:30.193Z,3.95
2024-01-27T11:48:59.439Z,8.27
2024-01-27T11:51:29.636Z,5.75
2024-01-27T11:54:00.324Z,5.80
2024-01-27T11:56:30.079Z,4.00
2024-01-27T11:58:59.824Z,6.75
2024-01-27T12:01:30.497Z,5.07
2024-01-27T12:03:59.865Z,6.28
2024-01-27T12:06:29.065Z,12.30
2024-01-27T12:08:58.869Z,3.35
2024-01-27T12:11:32.710Z,5.65
2024-01-27T12:14:01.960Z,4.93
2024-01-27T12:16:31.627Z,7.35
2024-01-27T12:19:00.930Z,4.93
2024-01-27T12:21:30.430Z,6.43
2024-01-27T12:24:01.259Z,4.95
2024-01-27T12:26:33.133Z,7.15
2024-01-27T12:29:02.264Z,6.57
2024-01-27T12:31:31.464Z,4.10
2024-01-27T12:34:01.487Z,5.90
2024-01-27T12:36:31.212Z,11.02
2024-01-27T12:39:01.010Z,6.62
2024-01-27T12:41:34.220Z,5.75
2024-01-27T12:46:33.487Z,4.43
2024-01-27T12:49:05.594Z,8.93
2024-01-27T12:51:35.643Z,2.75
2024-01-27T12:54:08.081Z,4.40
2024-01-27T12:56:43.689Z,7.78
2024-01-27T12:59:13.295Z,2.72
2024-01-27T13:01:42.955Z,4.20
2024-01-27T13:04:12.079Z,3.80
2024-01-27T13:06:44.997Z,8.48
2024-01-27T13:09:15.024Z,5.18
2024-01-27T13:11:46.006Z,5.07
2024-01-27T13:14:15.756Z,6.65
2024-01-27T13:16:45.031Z,5.40
2024-01-27T13:19:14.135Z,6.20
2024-01-27T13:21:43.605Z,7.45
2024-01-27T13:24:12.803Z,6.43
2024-01-27T13:26:41.929Z,6.05
2024-01-27T13:29:12.662Z,10.52
2024-01-27T13:31:41.961Z,7.97
2024-01-27T13:34:11.610Z,5.25
2024-01-27T13:36:40.981Z,6.62
2024-01-27T13:39:10.528Z,6.85
2024-01-27T13:41:40.230Z,6.30
2024-01-27T13:44:09.009Z,6.45
2024-01-27T13:46:39.953Z,6.53
2024-01-27T13:49:10.107Z,4.93
2024-01-27T13:51:39.892Z,7.28
2024-01-27T13:54:10.726Z,14.60
2024-01-27T13:56:40.198Z,7.20
2024-01-27T13:59:09.942Z,5.25
2024-01-27T14:01:43.461Z,4.12
2024-01-27T14:04:12.762Z,5.93
2024-01-27T14:06:42.362Z,9.40
2024-01-27T14:09:11.697Z,4.35
2024-01-27T14:11:40.987Z,9.38
2024-01-27T14:14:10.104Z,7.47
2024-01-27T14:16:40.505Z,8.98
2024-01-27T14:19:10.142Z,4.78
2024-01-27T14:21:40.138Z,6.68
2024-01-27T14:24:11.202Z,8.30
2024-01-27T14:26:40.832Z,4.05
2024-01-27T14:29:10.010Z,3.83
2024-01-27T14:31:43.077Z,6.30
2024-01-27T14:34:12.508Z,7.72
2024-01-27T14:36:42.067Z,7.47
2024-01-27T14:39:12.249Z,9.23
2024-01-27T14:41:42.361Z,6.05
2024-01-27T14:44:12.529Z,10.27
2024-01-27T14:46:43.269Z,13.18
2024-01-27T14:49:12.406Z,6.22
2024-01-27T14:51:42.264Z,4.55
2024-01-27T14:54:11.250Z,5.28
2024-01-27T14:56:40.474Z,7.93
2024-01-27T14:59:09.836Z,6.90
2024-01-27T15:01:39.220Z,7.53
2024-01-27T15:04:09.801Z,5.37
2024-01-27T15:06:39.657Z,4.22
2024-01-27T15:09:09.575Z,7.15
2024-01-27T15:11:38.454Z,9.13
2024-01-27T15:14:07.792Z,5.32
2024-01-27T15:16:36.946Z,10.20
2024-01-27T15:19:06.158Z,9.38
2024-01-27T15:21:37.307Z,6.43
2024-01-27T15:24:08.219Z,7.05
2024-01-27T15:26:38.051Z,6.07
2024-01-27T15:29:07.910Z,7.72
2024-01-27T15:31:37.408Z,5.53
2024-01-27T15:34:09.764Z,4.37
2024-01-27T15:39:11.854Z,9.50
2024-01-27T15:41:41.445Z,5.72
2024-01-27T15:44:10.666Z,5.85
2024-01-27T15:46:39.768Z,7.82
2024-01-27T15:49:09.629Z,12.80
2024-01-27T15:51:40.040Z,8.23
2024-01-27T15:54:09.535Z,13.70
2024-01-27T15:56:40.755Z,12.20
2024-01-27T15:59:11.909Z,8.00
2024-01-27T16:01:41.055Z,6.80
2024-01-27T16:04:11.526Z,6.78
2024-01-27T16:06:42.948Z,8.35
2024-01-27T16:09:12.602Z,9.70
2024-01-27T16:11:41.509Z,10.07
2024-01-27T16:14:12.143Z,8.25
2024-01-27T16:16:41.727Z,12.93
2024-01-27T16:19:11.326Z,12.63
2024-01-27T16:21:45.245Z,11.55
2024-01-27T16:24:14.760Z,8.90
2024-01-27T16:26:44.103Z,6.28
2024-01-27T16:29:17.175Z,5.75
2024-01-27T16:31:47.944Z,7.40
2024-01-27T16:34:17.705Z,8.75
2024-01-27T16:36:51.922Z,6.90
2024-01-27T16:39:20.964Z,11.20
2024-01-27T16:41:50.294Z,6.28
2024-01-27T16:44:19.339Z,10.48
2024-01-27T16:46:52.192Z,12.98
2024-01-27T16:49:21.820Z,9.68
2024-01-27T16:51:53.798Z,14.85
2024-01-27T16:54:27.270Z,8.25
2024-01-27T16:56:57.471Z,10.00
2024-01-27T16:59:26.775Z,10.52
2024-01-27T17:01:56.117Z,9.50
2024-01-27T17:04:25.843Z,8.43
2024-01-27T17:07:01.187Z,7.25
2024-01-27T17:09:31.041Z,5.60
2024-01-27T17:12:00.966Z,13.55
2024-01-27T17:14:33.889Z,8.52
2024-01-27T17:17:03.289Z,6.55
2024-01-27T17:19:32.497Z,15.75
2024-01-27T17:22:03.453Z,7.85
2024-01-27T17:24:32.875Z,8.98
2024-01-27T17:27:01.852Z,10.35
2024-01-27T17:29:34.402Z,8.95
2024-01-27T17:32:03.775Z,9.90
2024-01-27T17:34:36.349Z,8.25
2024-01-27T17:37:07.413Z,10.02
2024-01-27T17:39:36.692Z,9.80
2024-01-27T17:42:06.491Z,11.30
2024-01-27T17:44:35.661Z,7.82
2024-01-27T17:47:09.563Z,8.23
2024-01-27T17:49:38.795Z,7.97
2024-01-27T17:52:09.677Z,12.35
2024-01-27T17:54:38.702Z,10.57
2024-01-27T17:57:11.172Z,8.52
2024-01-27T17:59:41.933Z,6.53
2024-01-27T18:02:11.403Z,6.68
2024-01-27T18:04:42.027Z,6.62
2024-01-27T18:07:16.430Z,7.50
2024-01-27T18:09:46.671Z,6.20
2024-01-27T18:12:15.600Z,4.43
2024-01-27T18:14:45.026Z,6.82
2024-01-27T18:17:14.718Z,7.60
2024-01-27T18:19:43.659Z,10.90
2024-01-27T18:22:16.708Z,8.57
2024-01-27T18:24:46.388Z,7.85
2024-01-27T18:27:17.517Z,8.82
2024-01-27T18:29:49.419Z,13.15
2024-01-27T18:32:20.479Z,8.20
2024-01-27T18:34:50.436Z,10.27
2024-01-27T18:37:28.784Z,7.87
2024-01-27T18:40:05.545Z,6.62
2024-01-27T18:42:35.010Z,9.13
2024-01-27T18:45:05.024Z,9.95
2024-01-27T18:47:40.801Z,8.98
2024-01-27T18:50:12.277Z,9.18
2024-01-27T18:52:43.484Z,12.37
2024-01-27T18:55:19.881Z,15.40
2024-01-27T18:57:48.910Z,10.07
2024-01-27T19:00:20.854Z,13.18
2024-01-27T19:02:50.464Z,10.57
2024-01-27T19:05:23.385Z,11.98
2024-01-27T19:07:53.881Z,15.73
2024-01-27T19:10:23.560Z,19.73
2024-01-27T19:12:53.390Z,11.18
2024-01-27T19:15:22.870Z,16.17
2024-01-27T19:17:52.560Z,8.52
2024-01-27T19:20:21.893Z,12.35
2024-01-27T19:22:51.457Z,9.48
2024-01-27T19:25:23.774Z,12.25
2024-01-27T19:30:22.755Z,8.18
2024-01-27T19:32:52.199Z,14.40
2024-01-27T19:35:21.414Z,10.82
2024-01-27T19:37:50.724Z,8.43
2024-01-27T19:40:21.349Z,10.38
2024-01-27T19:42:51.451Z,9.85
2024-01-27T19:45:22.609Z,14.98
2024-01-27T19:47:52.313Z,11.20
2024-01-27T19:50:21.582Z,13.95
2024-01-27T19:52:51.633Z,13.40
2024-01-27T19:55:22.317Z,11.63
2024-01-27T19:57:51.922Z,9.50
2024-01-27T20:00:23.436Z,7.90
2024-01-27T20:02:56.027Z,7.40
2024-01-27T20:05:26.718Z,11.80
2024-01-27T20:07:58.218Z,12.75
2024-01-27T20:10:29.162Z,7.75
2024-01-27T20:13:01.768Z,11.45
2024-01-27T20:15:32.839Z,11.77
2024-01-27T20:18:03.507Z,12.82
2024-01-27T20:20:32.956Z,12.37
2024-01-27T20:23:04.215Z,11.60
2024-01-27T20:25:34.736Z,14.65
2024-01-27T20:28:04.685Z,9.25
2024-01-27T20:30:35.639Z,8.82
2024-01-27T20:33:06.044Z,8.60
2024-01-27T20:35:36.162Z,10.40
2024-01-27T20:38:06.468Z,9.90
2024-01-27T20:40:38.549Z,9.57
2024-01-27T20:43:08.629Z,15.18
2024-01-27T20:45:37.797Z,10.38
2024-01-27T20:48:09.502Z,11.45
2024-01-27T20:50:39.058Z,9.57
2024-01-27T20:53:09.237Z,9.38
2024-01-27T20:55:52.074Z,6.93
2024-01-27T20:58:21.789Z,12.70
2024-01-27T21:00:51.441Z,16.70
2024-01-27T21:03:30.162Z,9.93
2024-01-27T21:06:00.582Z,11.98
2024-01-27T21:08:30.354Z,8.10
2024-01-27T21:11:04.364Z,7.80
2024-01-27T21:13:33.383Z,10.60
2024-01-27T21:16:02.711Z,10.30
2024-01-27T21:18:32.428Z,12.00
2024-01-27T21:21:02.741Z,11.90
2024-01-27T21:23:32.827Z,10.00
2024-01-27T21:26:04.374Z,15.27
2024-01-27T21:28:37.474Z,6.53
2024-01-27T21:31:06.407Z,9.10
2024-01-27T21:33:36.097Z,11.52
2024-01-27T21:36:06.546Z,14.50
2024-01-27T21:38:38.007Z,9.43
2024-01-27T21:41:08.677Z,13.70
2024-01-27T21:43:37.921Z,9.50
2024-01-27T21:46:08.906Z,6.97
2024-01-27T21:48:38.743Z,15.63
2024-01-27T21:51:11.402Z,11.02
2024-01-27T21:53:41.748Z,10.90
2024-01-27T21:56:12.750Z,16.00
2024-01-27T21:58:41.877Z,11.30
2024-01-27T22:01:13.521Z,11.63
2024-01-27T22:03:43.331Z,8.27
2024-01-27T22:06:12.759Z,7.68
2024-01-27T22:08:42.576Z,7.90
2024-01-27T22:11:14.466Z,10.85
2024-01-27T22:13:44.061Z,18.12
2024-01-27T22:16:13.244Z,11.32
2024-01-27T22:18:43.740Z,8.95
2024-01-27T22:21:14.411Z,10.18
2024-01-27T22:23:44.958Z,13.27
2024-01-27T22:26:21.342Z,10.85
2024-01-27T22:28:51.116Z,10.15
2024-01-27T22:31:20.925Z,7.80
2024-01-27T22:33:51.602Z,7.70
2024-01-27T22:36:21.586Z,17.35
2024-01-27T22:38:55.081Z,8.23
2024-01-27T22:41:27.783Z,8.18
2024-01-27T22:43:57.659Z,13.75
2024-01-27T22:46:27.279Z,7.18
2024-01-27T22:48:56.260Z,8.75
2024-01-27T22:51:26.089Z,9.07
2024-01-27T22:53:55.921Z,14.30
2024-01-27T22:56:26.533Z,10.77
2024-01-27T22:58:55.686Z,10.48
2024-01-27T23:01:32.022Z,14.40
2024-01-27T23:04:01.615Z,9.65
2024-01-27T23:06:31.960Z,6.80
2024-01-27T23:09:03.136Z,13.32
2024-01-27T23:11:35.724Z,9.90
2024-01-27T23:14:06.143Z,12.13
2024-01-27T23:16:38.836Z,12.70
2024-01-27T23:19:13.951Z,7.72
2024-01-27T23:21:43.687Z,12.93
2024-01-27T23:24:17.061Z,7.50
2024-01-27T23:26:47.577Z,13.45
2024-01-27T23:29:16.820Z,10.02
2024-01-27T23:34:19.035Z,13.40
2024-01-27T23:36:48.425Z,7.87
2024-01-27T23:39:21.187Z,12.45
2024-01-27T23:41:51.978Z,10.80
2024-01-27T23:44:21.265Z,10.80
2024-01-27T23:46:50.422Z,13.15
2024-01-27T23:49:21.172Z,11.20
2024-01-27T23:51:50.770Z,10.27
2024-01-27T23:54:20.435Z,13.98
2024-01-27T23:56:49.484Z,10.52
2024-01-27T23:59:20.169Z,12.82
